createdAt,value
2018-02-14T00:00:20.848Z,71.20
2018-02-14T00:02:48.304Z,72.00
2018-02-14T00:05:16.136Z,73.00
2018-02-14T00:07:44.356Z,74.20
2018-02-14T00:10:11.818Z,74.10
2018-02-14T00:12:39.268Z,73.80
2018-02-14T00:15:06.723Z,73.80
2018-02-14T00:17:34.163Z,74.80
2018-02-14T00:20:02.388Z,75.50
2018-02-14T00:22:29.845Z,75.40
2018-02-14T00:24:57.297Z,75.20
2018-02-14T00:27:24.753Z,75.00
2018-02-14T00:29:52.209Z,74.70
2018-02-14T00:32:19.665Z,74.50
2018-02-14T00:34:47.144Z,75.00
2018-02-14T00:37:14.601Z,75.10
2018-02-14T00:39:42.057Z,75.50
2018-02-14T00:42:09.512Z,76.20
2018-02-14T00:44:36.972Z,76.10
2018-02-14T00:47:05.223Z,76.00
2018-02-14T00:49:32.660Z,76.00
2018-02-14T00:52:00.129Z,75.90
2018-02-14T00:54:27.629Z,75.10
2018-02-14T00:56:55.058Z,73.90
2018-02-14T00:59:22.516Z,73.60
2018-02-14T01:01:49.983Z,73.60
2018-02-14T01:04:17.437Z,73.40
2018-02-14T01:06:45.659Z,73.60
2018-02-14T01:09:13.881Z,73.20
2018-02-14T01:11:41.344Z,73.20
2018-02-14T01:14:08.799Z,73.10
2018-02-14T01:16:36.264Z,73.40
2018-02-14T01:19:09.359Z,75.40
2018-02-14T01:21:36.893Z,75.40
2018-02-14T01:24:04.354Z,75.80
2018-02-14T01:26:32.584Z,77.00
2018-02-14T01:29:00.044Z,76.90
2018-02-14T01:31:27.497Z,77.00
2018-02-14T01:33:54.957Z,77.40
2018-02-14T01:36:22.413Z,77.00
2018-02-14T01:38:49.868Z,76.40
2018-02-14T01:41:17.336Z,77.00
2018-02-14T01:43:44.799Z,78.10
2018-02-14T01:46:12.272Z,78.20
2018-02-14T01:48:39.724Z,77.50
2018-02-14T01:51:07.179Z,77.00
2018-02-14T01:53:34.655Z,77.40
2018-02-14T01:56:02.106Z,77.90
2018-02-14T01:58:29.564Z,77.60
2018-02-14T02:00:57.025Z,77.60
2018-02-14T02:03:24.488Z,77.60
2018-02-14T02:05:51.952Z,77.40
2018-02-14T02:10:53.120Z,77.40
2018-02-14T02:13:20.570Z,77.20
2018-02-14T02:15:48.010Z,77.40
2018-02-14T02:18:16.272Z,77.10
2018-02-14T02:20:43.685Z,77.10
2018-02-14T02:23:11.173Z,77.30
2018-02-14T02:25:38.634Z,77.10
2018-02-14T02:28:06.093Z,77.30
2018-02-14T02:30:33.557Z,77.90
2018-02-14T02:33:01.024Z,78.30
2018-02-14T02:35:28.486Z,78.00
2018-02-14T02:37:55.957Z,76.90
2018-02-14T02:40:30.184Z,78.20
2018-02-14T02:42:57.657Z,77.90
2018-02-14T02:45:25.112Z,77.60
2018-02-14T02:47:52.577Z,77.80
2018-02-14T02:50:20.045Z,77.70
2018-02-14T02:52:47.533Z,78.00
2018-02-14T02:55:15.763Z,77.90
2018-02-14T02:57:44.736Z,77.90
2018-02-14T03:00:12.652Z,77.90
2018-02-14T03:02:40.882Z,79.50
2018-02-14T03:05:08.346Z,79.30
2018-02-14T03:07:35.801Z,79.20
2018-02-14T03:10:03.264Z,78.30
2018-02-14T03:12:31.486Z,77.10
2018-02-14T03:14:59.724Z,76.60
2018-02-14T03:17:27.179Z,76.60
2018-02-14T03:19:54.651Z,76.20
2018-02-14T03:22:22.107Z,76.40
2018-02-14T03:24:49.559Z,76.30
2018-02-14T03:27:17.025Z,76.90
2018-02-14T03:29:44.503Z,77.70
2018-02-14T03:32:11.961Z,78.20
2018-02-14T03:34:40.189Z,77.80
2018-02-14T03:37:08.408Z,77.80
2018-02-14T03:39:35.869Z,77.80
2018-02-14T03:42:03.331Z,78.60
2018-02-14T03:44:30.804Z,78.50
2018-02-14T03:46:58.262Z,77.90
2018-02-14T03:49:25.733Z,77.90
2018-02-14T03:51:53.191Z,78.40
2018-02-14T03:54:20.660Z,78.30
2018-02-14T03:56:48.121Z,78.40
2018-02-14T03:59:15.602Z,79.00
2018-02-14T04:01:43.053Z,79.20
2018-02-14T04:04:10.512Z,78.30
2018-02-14T04:06:37.972Z,77.70
2018-02-14T04:09:05.423Z,78.30
2018-02-14T04:11:32.893Z,78.20
2018-02-14T04:14:00.352Z,77.10
2018-02-14T04:16:27.820Z,76.80
2018-02-14T04:18:55.284Z,76.70
2018-02-14T04:21:22.748Z,76.30
2018-02-14T04:23:50.222Z,76.10
2018-02-14T04:26:17.697Z,77.50
2018-02-14T04:28:45.146Z,78.50
2018-02-14T04:31:13.372Z,78.20
2018-02-14T04:33:40.838Z,78.10
2018-02-14T04:36:08.317Z,78.10
2018-02-14T04:38:35.776Z,77.30
2018-02-14T04:41:03.236Z,76.90
2018-02-14T04:43:30.689Z,77.10
2018-02-14T04:45:58.148Z,76.70
2018-02-14T04:48:25.613Z,77.10
2018-02-14T04:50:53.077Z,77.50
2018-02-14T04:53:20.524Z,78.50
2018-02-14T04:55:48.770Z,80.20
2018-02-14T04:58:16.234Z,80.20
2018-02-14T05:00:44.457Z,79.90
2018-02-14T05:03:11.936Z,79.90
2018-02-14T05:05:40.138Z,80.80
2018-02-14T05:08:07.607Z,80.80
2018-02-14T05:10:35.076Z,80.20
2018-02-14T05:13:02.552Z,80.20
2018-02-14T05:15:30.000Z,80.10
2018-02-14T05:17:57.478Z,79.10
2018-02-14T05:20:24.937Z,78.50
2018-02-14T05:22:52.397Z,80.20
2018-02-14T05:25:19.853Z,81.60
2018-02-14T05:27:47.312Z,81.00
2018-02-14T05:30:14.776Z,79.60
2018-02-14T05:32:42.246Z,78.90
2018-02-14T05:35:09.696Z,79.00
2018-02-14T05:37:37.182Z,80.40
2018-02-14T05:40:04.628Z,80.10
2018-02-14T05:42:32.100Z,78.80
2018-02-14T05:44:59.548Z,78.10
2018-02-14T05:47:27.020Z,78.40
2018-02-14T05:49:54.474Z,79.60
2018-02-14T05:52:21.950Z,80.70
2018-02-14T05:54:49.405Z,81.20
2018-02-14T05:57:16.870Z,79.90
2018-02-14T05:59:44.333Z,78.90
2018-02-14T06:02:11.798Z,79.20
2018-02-14T06:04:39.261Z,79.80
2018-02-14T06:07:06.713Z,81.00
2018-02-14T06:09:34.190Z,81.30
2018-02-14T06:12:01.672Z,81.00
2018-02-14T06:14:29.890Z,81.90
2018-02-14T06:16:57.352Z,81.90
2018-02-14T06:19:24.831Z,81.70
2018-02-14T06:21:52.292Z,81.30
2018-02-14T06:24:19.754Z,80.60
2018-02-14T06:26:47.216Z,81.20
2018-02-14T06:29:15.441Z,82.40
2018-02-14T06:31:43.668Z,82.10
2018-02-14T06:34:11.126Z,82.00
2018-02-14T06:36:38.584Z,82.00
2018-02-14T06:39:06.069Z,82.10
2018-02-14T06:41:33.529Z,81.00
2018-02-14T06:44:01.014Z,80.00
2018-02-14T06:46:28.489Z,79.60
2018-02-14T06:48:56.707Z,82.60
2018-02-14T06:51:24.170Z,81.90
2018-02-14T06:53:51.637Z,81.50
2018-02-14T06:56:19.107Z,82.10
2018-02-14T06:58:46.584Z,82.20
2018-02-14T07:01:14.032Z,82.00
2018-02-14T07:03:41.497Z,82.30
2018-02-14T07:06:08.965Z,82.40
2018-02-14T07:08:36.425Z,82.30
2018-02-14T07:11:03.892Z,81.90
2018-02-14T07:13:31.349Z,81.80
2018-02-14T07:15:58.805Z,82.50
2018-02-14T07:18:26.282Z,82.80
2018-02-14T07:20:53.747Z,82.30
2018-02-14T07:23:26.914Z,82.00
2018-02-14T07:25:54.376Z,82.80
2018-02-14T07:28:21.835Z,82.70
2018-02-14T07:30:49.297Z,82.80
2018-02-14T07:33:16.773Z,83.50
2018-02-14T07:35:44.244Z,83.90
2018-02-14T07:38:11.705Z,84.50
2018-02-14T07:40:39.169Z,84.30
2018-02-14T07:43:06.629Z,83.10
2018-02-14T07:45:34.094Z,82.20
2018-02-14T07:48:01.545Z,81.10
2018-02-14T07:50:29.007Z,82.20
2018-02-14T07:52:56.469Z,82.60
2018-02-14T07:55:23.941Z,81.50
2018-02-14T07:57:51.405Z,80.00
2018-02-14T08:00:18.887Z,79.50
2018-02-14T08:02:47.118Z,78.60
2018-02-14T08:05:14.585Z,78.60
2018-02-14T08:07:42.073Z,78.60
2018-02-14T08:10:09.535Z,78.20
2018-02-14T08:12:37.000Z,78.70
2018-02-14T08:15:04.474Z,80.30
2018-02-14T08:17:31.935Z,79.90
2018-02-14T08:19:59.388Z,79.70
2018-02-14T08:22:26.856Z,79.70
2018-02-14T08:24:54.322Z,80.60
2018-02-14T08:27:22.545Z,79.40
2018-02-14T08:29:50.778Z,79.10
2018-02-14T08:32:18.259Z,79.10
2018-02-14T08:34:45.708Z,79.40
2018-02-14T08:37:13.171Z,81.40
2018-02-14T08:39:40.624Z,81.30
2018-02-14T08:42:08.096Z,83.10
2018-02-14T08:44:35.565Z,81.70
2018-02-14T08:47:03.026Z,81.00
2018-02-14T08:49:30.487Z,81.80
2018-02-14T08:51:57.956Z,80.60
2018-02-14T08:54:25.408Z,81.10
2018-02-14T08:56:52.881Z,80.40
2018-02-14T08:59:20.344Z,79.90
2018-02-14T09:01:47.805Z,80.70
2018-02-14T09:04:15.262Z,80.20
2018-02-14T09:06:42.779Z,79.70
2018-02-14T09:09:10.225Z,80.30
2018-02-14T09:11:38.456Z,79.50
2018-02-14T09:14:05.908Z,79.40
2018-02-14T09:16:33.374Z,78.60
2018-02-14T09:19:01.606Z,77.90
2018-02-14T09:21:29.833Z,78.00
2018-02-14T09:23:57.292Z,78.00
2018-02-14T09:26:24.836Z,78.00
2018-02-14T09:28:52.399Z,78.30
2018-02-14T09:31:19.909Z,78.00
2018-02-14T09:33:47.297Z,77.70
2018-02-14T09:36:15.538Z,77.20
2018-02-14T09:38:42.993Z,77.10
2018-02-14T09:41:10.456Z,77.50
2018-02-14T09:43:37.912Z,77.10
2018-02-14T09:46:05.388Z,77.60
2018-02-14T09:48:32.847Z,77.70
2018-02-14T09:51:00.316Z,77.40
2018-02-14T09:53:27.781Z,77.40
2018-02-14T09:55:55.252Z,77.40
2018-02-14T09:58:22.708Z,77.00
2018-02-14T10:00:50.157Z,76.20
2018-02-14T10:03:17.616Z,77.10
2018-02-14T10:05:45.076Z,77.10
2018-02-14T10:08:12.528Z,76.50
2018-02-14T10:10:39.980Z,76.30
2018-02-14T10:13:07.444Z,75.40
2018-02-14T10:15:34.903Z,74.90
2018-02-14T10:18:02.407Z,73.50
2018-02-14T10:20:29.811Z,73.50
2018-02-14T10:22:58.033Z,74.20
2018-02-14T10:25:25.484Z,74.10
2018-02-14T10:27:52.952Z,69.80
2018-02-14T10:30:20.401Z,72.50
2018-02-14T10:32:47.860Z,73.50
2018-02-14T10:35:15.317Z,70.70
2018-02-14T10:37:42.776Z,70.40
2018-02-14T10:40:10.226Z,72.30
2018-02-14T10:42:38.446Z,71.70
2018-02-14T10:45:05.885Z,71.70
2018-02-14T10:47:33.348Z,72.20
2018-02-14T10:50:00.811Z,70.20
2018-02-14T10:52:28.249Z,71.60
2018-02-14T10:54:56.462Z,71.90
2018-02-14T10:57:23.924Z,71.90
2018-02-14T10:59:51.374Z,70.60
2018-02-14T11:02:18.852Z,71.70
2018-02-14T11:04:52.028Z,72.00
2018-02-14T11:07:19.486Z,72.00
2018-02-14T11:09:46.935Z,71.70
2018-02-14T11:12:15.165Z,71.90
2018-02-14T11:14:42.633Z,71.80
2018-02-14T11:17:10.092Z,70.70
2018-02-14T11:19:37.575Z,71.90
2018-02-14T11:22:05.016Z,72.60
2018-02-14T11:24:32.468Z,66.90
2018-02-14T11:26:59.920Z,65.80
2018-02-14T11:29:27.372Z,65.30
2018-02-14T11:34:29.580Z,67.30
2018-02-14T11:36:57.024Z,67.30
2018-02-14T11:39:24.511Z,67.20
2018-02-14T11:41:51.957Z,69.00
2018-02-14T11:44:19.421Z,67.50
2018-02-14T11:46:46.877Z,68.80
2018-02-14T11:49:14.337Z,67.90
2018-02-14T11:51:41.816Z,65.40
2018-02-14T11:54:09.279Z,66.00
2018-02-14T11:56:36.728Z,66.40
2018-02-14T11:59:04.188Z,65.00
2018-02-14T12:01:31.645Z,66.10
2018-02-14T12:03:59.110Z,65.30
2018-02-14T12:06:26.569Z,66.80
2018-02-14T12:08:54.031Z,64.50
2018-02-14T12:11:21.584Z,67.20
2018-02-14T12:13:49.040Z,67.40
2018-02-14T12:16:17.262Z,66.60
2018-02-14T12:18:44.725Z,66.60
2018-02-14T12:21:12.165Z,65.80
2018-02-14T12:23:39.630Z,63.60
2018-02-14T12:26:07.076Z,60.60
2018-02-14T12:28:34.527Z,59.30
2018-02-14T12:31:02.760Z,63.20
2018-02-14T12:33:30.212Z,63.20
2018-02-14T12:35:57.675Z,61.20
2018-02-14T12:38:25.112Z,58.70
2018-02-14T12:40:52.572Z,58.60
2018-02-14T12:43:20.015Z,61.40
2018-02-14T12:45:48.240Z,63.00
2018-02-14T12:48:15.690Z,63.00
2018-02-14T12:50:43.170Z,63.70
2018-02-14T12:53:10.617Z,64.50
2018-02-14T12:55:38.078Z,62.60
2018-02-14T12:58:05.531Z,59.70
2018-02-14T13:00:32.992Z,58.30
2018-02-14T13:03:00.433Z,61.60
2018-02-14T13:05:28.661Z,60.40
2018-02-14T13:07:56.109Z,60.50
2018-02-14T13:10:23.569Z,59.90
2018-02-14T13:12:51.026Z,59.50
2018-02-14T13:15:18.492Z,60.50
2018-02-14T13:17:45.947Z,59.70
2018-02-14T13:20:13.407Z,60.30
2018-02-14T13:22:40.847Z,59.10
2018-02-14T13:25:09.073Z,61.10
2018-02-14T13:27:36.522Z,61.00
2018-02-14T13:30:03.972Z,59.70
2018-02-14T13:32:31.426Z,62.00
2018-02-14T13:34:58.883Z,60.90
2018-02-14T13:37:27.113Z,60.30
2018-02-14T13:39:54.584Z,60.30
2018-02-14T13:42:22.033Z,59.20
2018-02-14T13:44:49.493Z,59.20
2018-02-14T13:47:16.956Z,60.10
2018-02-14T13:49:45.176Z,60.00
2018-02-14T13:52:13.395Z,59.30
2018-02-14T13:54:40.841Z,59.20
2018-02-14T13:57:08.309Z,60.90
2018-02-14T13:59:35.771Z,59.10
2018-02-14T14:02:03.228Z,59.40
2018-02-14T14:04:30.699Z,59.60
2018-02-14T14:06:58.132Z,59.20
2018-02-14T14:09:26.344Z,62.20
2018-02-14T14:11:53.804Z,62.10
2018-02-14T14:14:21.249Z,59.00
2018-02-14T14:16:48.699Z,59.60
2018-02-14T14:19:16.913Z,57.20
2018-02-14T14:21:44.370Z,57.10
2018-02-14T14:24:11.818Z,56.70
2018-02-14T14:26:39.282Z,55.70
2018-02-14T14:29:06.727Z,59.10
2018-02-14T14:31:34.944Z,53.70
2018-02-14T14:34:02.420Z,53.70
2018-02-14T14:36:29.873Z,53.40
2018-02-14T14:38:57.325Z,54.50
2018-02-14T14:41:24.788Z,53.30
2018-02-14T14:43:52.241Z,57.80
2018-02-14T14:46:19.695Z,57.70
2018-02-14T14:48:47.914Z,56.10
2018-02-14T14:51:15.389Z,56.00
2018-02-14T14:53:42.838Z,56.90
2018-02-14T14:56:10.284Z,54.40
2018-02-14T14:58:37.788Z,57.60
2018-02-14T15:01:05.202Z,55.90
2018-02-14T15:03:32.661Z,54.30
2018-02-14T15:06:00.109Z,53.70
2018-02-14T15:08:27.559Z,55.00
2018-02-14T15:10:55.781Z,58.60
2018-02-14T15:13:23.253Z,58.40
2018-02-14T15:15:50.708Z,55.60
2018-02-14T15:18:18.170Z,56.70
2018-02-14T15:20:45.624Z,56.20
2018-02-14T15:23:13.900Z,57.90
2018-02-14T15:25:41.459Z,55.60
2018-02-14T15:28:08.924Z,55.90
2018-02-14T15:30:36.386Z,55.90
2018-02-14T15:33:03.850Z,57.60
2018-02-14T15:35:31.296Z,58.00
2018-02-14T15:37:58.760Z,57.80
2018-02-14T15:40:26.220Z,57.40
2018-02-14T15:42:54.441Z,56.50
2018-02-14T15:45:21.894Z,56.50
2018-02-14T15:47:49.394Z,58.40
2018-02-14T15:50:16.848Z,57.70
2018-02-14T15:52:45.069Z,54.40
2018-02-14T15:55:12.518Z,54.50
2018-02-14T15:57:40.754Z,57.50
2018-02-14T16:00:08.200Z,57.40
2018-02-14T16:02:35.696Z,58.60
2018-02-14T16:05:03.149Z,58.10
2018-02-14T16:07:30.600Z,58.60
2018-02-14T16:09:58.056Z,59.00
2018-02-14T16:12:25.521Z,58.90
2018-02-14T16:14:52.989Z,58.50
2018-02-14T16:17:20.443Z,59.00
2018-02-14T16:19:47.905Z,59.40
2018-02-14T16:22:15.360Z,59.40
2018-02-14T16:24:42.827Z,59.40
2018-02-14T16:27:10.302Z,59.40
2018-02-14T16:29:37.770Z,60.00
2018-02-14T16:32:05.221Z,60.80
2018-02-14T16:34:32.680Z,60.50
2018-02-14T16:37:00.914Z,61.50
2018-02-14T16:39:29.141Z,62.10
2018-02-14T16:41:56.614Z,62.10
2018-02-14T16:44:24.080Z,61.60
2018-02-14T16:46:51.573Z,62.20
2018-02-14T16:49:19.012Z,62.60
2018-02-14T16:51:46.469Z,62.70
2018-02-14T16:54:13.939Z,62.30
2018-02-14T16:56:41.395Z,61.00
2018-02-14T16:59:08.868Z,63.10
2018-02-14T17:01:36.324Z,63.20
2018-02-14T17:04:03.793Z,62.70
2018-02-14T17:06:31.253Z,63.70
2018-02-14T17:08:58.709Z,64.10
2018-02-14T17:11:26.172Z,64.00
2018-02-14T17:13:53.636Z,62.90
2018-02-14T17:16:21.094Z,62.60
2018-02-14T17:18:48.565Z,63.50
2018-02-14T17:21:16.028Z,65.30
2018-02-14T17:23:43.486Z,65.50
2018-02-14T17:26:10.953Z,65.60
2018-02-14T17:28:38.391Z,65.70
2018-02-14T17:31:05.860Z,66.00
2018-02-14T17:33:33.320Z,65.90
2018-02-14T17:36:00.781Z,66.10
2018-02-14T17:38:28.238Z,65.60
2018-02-14T17:40:55.704Z,66.50
2018-02-14T17:43:23.169Z,68.20
2018-02-14T17:45:50.641Z,68.20
2018-02-14T17:48:18.096Z,68.50
2018-02-14T17:50:45.556Z,68.70
2018-02-14T17:53:13.033Z,69.00
2018-02-14T17:55:40.505Z,67.90
2018-02-14T17:58:07.969Z,67.60
2018-02-14T18:00:35.424Z,67.60
2018-02-14T18:03:03.661Z,70.00
2018-02-14T18:05:31.121Z,69.30
2018-02-14T18:07:58.590Z,69.80
2018-02-14T18:10:26.068Z,69.70
2018-02-14T18:12:53.519Z,68.80
2018-02-14T18:15:20.991Z,69.10
2018-02-14T18:17:48.457Z,69.90
2018-02-14T18:20:15.922Z,69.60
2018-02-14T18:22:43.379Z,70.60
2018-02-14T18:25:10.839Z,70.90
2018-02-14T18:27:38.304Z,71.00
2018-02-14T18:30:05.770Z,71.10
2018-02-14T18:32:33.232Z,71.10
2018-02-14T18:35:00.680Z,70.80
2018-02-14T18:37:28.136Z,71.10
2018-02-14T18:39:55.593Z,71.80
2018-02-14T18:42:23.056Z,71.00
2018-02-14T18:44:51.314Z,70.70
2018-02-14T18:47:18.806Z,70.70
2018-02-14T18:49:46.254Z,71.30
2018-02-14T18:52:13.735Z,71.20
2018-02-14T18:54:41.189Z,71.50
2018-02-14T18:57:08.654Z,71.10
2018-02-14T18:59:36.118Z,72.20
2018-02-14T19:02:03.586Z,72.90
2018-02-14T19:04:31.049Z,73.30
2018-02-14T19:06:58.508Z,73.10
2018-02-14T19:09:26.064Z,72.30
2018-02-14T19:11:53.528Z,73.10
2018-02-14T19:14:20.988Z,72.60
2018-02-14T19:16:48.449Z,72.60
2018-02-14T19:19:15.912Z,72.50
2018-02-14T19:21:43.364Z,73.20
2018-02-14T19:24:10.825Z,73.60
2018-02-14T19:26:38.277Z,74.10
2018-02-14T19:29:06.504Z,74.70
2018-02-14T19:31:33.953Z,74.60
2018-02-14T19:34:01.417Z,75.10
2018-02-14T19:36:28.871Z,73.90
2018-02-14T19:38:56.371Z,74.10
2018-02-14T19:41:23.823Z,74.40
2018-02-14T19:43:52.048Z,73.60
2018-02-14T19:46:20.260Z,74.30
2018-02-14T19:48:47.724Z,74.30
2018-02-14T19:51:15.176Z,74.90
2018-02-14T19:53:42.637Z,75.30
2018-02-14T19:56:10.096Z,76.10
2018-02-14T19:58:37.555Z,76.40
2018-02-14T20:01:05.009Z,76.30
2018-02-14T20:03:33.228Z,75.90
2018-02-14T20:06:00.677Z,75.80
2018-02-14T20:08:28.136Z,76.30
2018-02-14T20:10:55.592Z,76.60
2018-02-14T20:13:23.050Z,76.30
2018-02-14T20:15:50.490Z,75.80
2018-02-14T20:18:18.716Z,76.10
2018-02-14T20:20:46.168Z,76.10
2018-02-14T20:23:13.620Z,76.30
2018-02-14T20:25:41.072Z,76.50
2018-02-14T20:28:08.520Z,76.30
2018-02-14T20:30:36.745Z,76.70
2018-02-14T20:33:04.188Z,76.70
2018-02-14T20:35:31.648Z,76.80
2018-02-14T20:37:59.096Z,76.40
2018-02-14T20:40:26.546Z,76.90
2018-02-14T20:42:54.768Z,77.10
2018-02-14T20:45:22.229Z,77.10
2018-02-14T20:47:49.688Z,77.30
2018-02-14T20:50:17.152Z,76.70
2018-02-14T20:52:44.600Z,76.80
2018-02-14T20:55:12.066Z,77.00
2018-02-14T20:57:39.521Z,76.90
2018-02-14T21:00:06.990Z,76.70
2018-02-14T21:02:34.437Z,76.80
2018-02-14T21:05:01.897Z,77.10
2018-02-14T21:07:29.341Z,77.00
2018-02-14T21:09:57.569Z,77.00
2018-02-14T21:12:25.013Z,77.00
2018-02-14T21:14:52.477Z,77.60
2018-02-14T21:17:19.935Z,77.40
2018-02-14T21:19:47.405Z,77.60
2018-02-14T21:22:14.858Z,78.20
2018-02-14T21:24:42.313Z,77.80
2018-02-14T21:27:09.769Z,77.90
2018-02-14T21:29:37.981Z,77.20
2018-02-14T21:32:05.434Z,77.20
2018-02-14T21:34:32.914Z,77.70
2018-02-14T21:37:00.352Z,77.10
2018-02-14T21:39:27.810Z,77.50
2018-02-14T21:41:55.264Z,77.30
2018-02-14T21:44:23.481Z,77.60
2018-02-14T21:46:50.950Z,77.60
2018-02-14T21:49:19.159Z,77.20
2018-02-14T21:51:46.624Z,77.20
2018-02-14T21:54:14.095Z,76.30
2018-02-14T21:56:42.328Z,76.30
2018-02-14T21:59:09.768Z,76.20
2018-02-14T22:01:37.233Z,76.00
2018-02-14T22:04:04.692Z,75.80
2018-02-14T22:06:32.154Z,75.80
2018-02-14T22:08:59.633Z,76.00
2018-02-14T22:11:27.083Z,76.40
2018-02-14T22:13:54.540Z,76.50
2018-02-14T22:16:22.021Z,76.30
2018-02-14T22:18:49.480Z,76.20
2018-02-14T22:21:16.946Z,76.00
2018-02-14T22:23:44.392Z,75.40
2018-02-14T22:26:11.865Z,74.40
2018-02-14T22:28:39.316Z,75.10
2018-02-14T22:31:06.781Z,75.30
2018-02-14T22:33:34.250Z,75.00
2018-02-14T22:36:01.704Z,75.00
2018-02-14T22:38:29.153Z,74.40
2018-02-14T22:40:56.629Z,74.50
2018-02-14T22:43:24.082Z,74.50
2018-02-14T22:45:51.537Z,75.20
2018-02-14T22:48:19.004Z,75.60
2018-02-14T22:50:46.460Z,75.70
2018-02-14T22:53:14.685Z,75.80
2018-02-14T22:55:42.146Z,75.80
2018-02-14T22:58:09.606Z,75.80
2018-02-14T23:00:37.061Z,75.40
2018-02-14T23:03:04.528Z,75.00
2018-02-14T23:05:31.980Z,74.50
2018-02-14T23:08:00.199Z,75.20
2018-02-14T23:10:27.653Z,75.20
2018-02-14T23:12:55.149Z,75.00
2018-02-14T23:15:22.598Z,74.80
2018-02-14T23:17:50.065Z,74.80
2018-02-14T23:20:17.520Z,74.80
2018-02-14T23:22:44.981Z,74.30
2018-02-14T23:25:13.312Z,74.70
2018-02-14T23:27:41.537Z,74.90
2018-02-14T23:30:12.830Z,74.80
2018-02-14T23:32:41.065Z,73.90
2018-02-14T23:35:08.508Z,73.80
2018-02-14T23:37:35.968Z,73.20
2018-02-14T23:40:03.439Z,73.10
2018-02-14T23:42:30.876Z,73.20
2018-02-14T23:44:58.327Z,73.00
2018-02-14T23:47:26.565Z,72.90
2018-02-14T23:49:54.022Z,73.00
2018-02-14T23:52:21.486Z,73.10
2018-02-14T23:54:48.949Z,73.60
2018-02-14T23:57:16.396Z,73.60
2018-02-14T23:59:43.852Z,73.50
